createdAt,value
2022-12-05T00:00:37.019Z,43.30
2022-12-05T00:01:37.129Z,43.17
2022-12-05T00:02:37.020Z,42.90
2022-12-05T00:03:36.963Z,43.48
2022-12-05T00:04:37.037Z,43.21
2022-12-05T00:05:36.939Z,43.35
2022-12-05T00:06:36.935Z,43.44
2022-12-05T00:07:36.929Z,43.57
2022-12-05T00:08:36.910Z,43.39
2022-12-05T00:09:36.880Z,43.39
2022-12-05T00:10:36.905Z,43.62
2022-12-05T00:11:36.878Z,43.44
2022-12-05T00:12:36.848Z,43.39
2022-12-05T00:13:36.824Z,43.44
2022-12-05T00:14:36.823Z,43.53
2022-12-05T00:15:36.838Z,43.57
2022-12-05T00:16:36.872Z,43.62
2022-12-05T00:17:36.776Z,43.75
2022-12-05T00:18:36.780Z,43.53
2022-12-05T00:19:36.761Z,43.53
2022-12-05T00:20:36.732Z,43.80
2022-12-05T00:21:36.717Z,43.57
2022-12-05T00:22:36.761Z,43.57
2022-12-05T00:23:36.714Z,43.75
2022-12-05T00:24:36.693Z,43.80
2022-12-05T00:25:36.694Z,43.66
2022-12-05T00:26:36.646Z,43.53
2022-12-05T00:27:36.646Z,43.75
2022-12-05T00:28:36.630Z,43.71
2022-12-05T00:29:36.707Z,43.66
2022-12-05T00:30:36.606Z,43.80
2022-12-05T00:31:36.651Z,43.75
2022-12-05T00:32:36.569Z,43.94
2022-12-05T00:33:36.556Z,43.89
2022-12-05T00:34:36.565Z,44.12
2022-12-05T00:35:36.549Z,43.62
2022-12-05T00:36:36.545Z,43.98
2022-12-05T00:37:36.525Z,43.89
2022-12-05T00:38:36.508Z,44.22
2022-12-05T00:39:36.492Z,43.89
2022-12-05T00:40:36.508Z,43.94
2022-12-05T00:41:36.459Z,43.94
2022-12-05T00:42:36.444Z,44.12
2022-12-05T00:43:36.423Z,44.03
2022-12-05T00:44:36.408Z,44.26
2022-12-05T00:45:36.459Z,43.85
2022-12-05T00:46:36.502Z,44.22
2022-12-05T00:47:36.384Z,44.36
2022-12-05T00:48:36.360Z,44.22
2022-12-05T00:49:36.340Z,44.40
2022-12-05T00:50:36.362Z,44.26
2022-12-05T00:51:36.330Z,44.17
2022-12-05T00:52:36.305Z,44.40
2022-12-05T00:53:36.296Z,44.22
2022-12-05T00:54:36.309Z,44.45
2022-12-05T00:55:36.286Z,44.22
2022-12-05T00:56:36.295Z,44.17
2022-12-05T00:57:36.251Z,44.54
2022-12-05T00:58:36.233Z,44.40
2022-12-05T00:59:36.234Z,44.40
2022-12-05T01:00:36.230Z,44.50
2022-12-05T01:01:36.319Z,44.74
2022-12-05T01:02:36.185Z,44.59
2022-12-05T01:03:36.236Z,44.54
2022-12-05T01:04:36.162Z,44.36
2022-12-05T01:05:36.163Z,44.54
2022-12-05T01:06:36.121Z,44.54
2022-12-05T01:07:36.162Z,44.83
2022-12-05T01:08:36.118Z,44.54
2022-12-05T01:09:36.092Z,44.54
2022-12-05T01:10:36.073Z,44.74
2022-12-05T01:11:41.025Z,44.74
2022-12-05T01:12:36.071Z,44.64
2022-12-05T01:13:36.099Z,44.59
2022-12-05T01:14:36.023Z,44.78
2022-12-05T01:15:36.023Z,44.74
2022-12-05T01:16:36.059Z,44.69
2022-12-05T01:17:36.003Z,44.69
2022-12-05T01:18:35.997Z,44.69
2022-12-05T01:19:35.981Z,44.40
2022-12-05T01:20:35.954Z,44.59
2022-12-05T01:21:35.924Z,44.59
2022-12-05T01:22:35.961Z,44.74
2022-12-05T01:23:35.939Z,45.02
2022-12-05T01:24:35.897Z,44.97
2022-12-05T01:25:35.887Z,45.02
2022-12-05T01:26:35.893Z,44.78
2022-12-05T01:27:35.870Z,44.93
2022-12-05T01:28:35.889Z,44.78
2022-12-05T01:29:35.839Z,44.83
2022-12-05T01:30:35.830Z,44.74
2022-12-05T01:31:35.909Z,44.74
2022-12-05T01:32:35.794Z,44.83
2022-12-05T01:33:35.779Z,44.78
2022-12-05T01:34:35.801Z,44.78
2022-12-05T01:35:35.764Z,44.97
2022-12-05T01:36:35.755Z,44.93
2022-12-05T01:37:35.707Z,44.93
2022-12-05T01:38:35.721Z,45.02
2022-12-05T01:39:35.685Z,45.02
2022-12-05T01:40:35.714Z,44.97
2022-12-05T01:41:35.683Z,45.07
2022-12-05T01:42:35.674Z,44.83
2022-12-05T01:43:35.651Z,44.97
2022-12-05T01:44:35.642Z,45.02
2022-12-05T01:45:35.708Z,44.93
2022-12-05T01:46:35.609Z,45.07
2022-12-05T01:47:35.580Z,45.17
2022-12-05T01:48:35.593Z,45.27
2022-12-05T01:49:35.563Z,45.12
2022-12-05T01:50:35.729Z,45.22
2022-12-05T01:51:35.536Z,45.07
2022-12-05T01:52:35.519Z,44.74
2022-12-05T01:53:35.503Z,45.36
2022-12-05T01:54:35.517Z,45.22
2022-12-05T01:55:35.493Z,45.07
2022-12-05T01:56:35.501Z,45.36
2022-12-05T01:57:35.473Z,45.27
2022-12-05T01:58:35.454Z,45.36
2022-12-05T01:59:35.441Z,45.41
2022-12-05T02:00:35.452Z,45.36
2022-12-05T02:01:35.535Z,45.41
2022-12-05T02:02:35.448Z,45.46
2022-12-05T02:03:35.432Z,45.22
2022-12-05T02:04:35.361Z,45.56
2022-12-05T02:05:35.353Z,45.56
2022-12-05T02:06:35.361Z,45.56
2022-12-05T02:07:35.382Z,45.46
2022-12-05T02:08:35.322Z,45.56
2022-12-05T02:09:35.307Z,45.71
2022-12-05T02:10:35.323Z,45.71
2022-12-05T02:11:35.272Z,45.71
2022-12-05T02:12:35.283Z,45.76
2022-12-05T02:13:35.271Z,45.71
2022-12-05T02:14:35.236Z,45.71
2022-12-05T02:15:35.230Z,45.66
2022-12-05T02:16:35.284Z,45.81
2022-12-05T02:17:35.218Z,45.91
2022-12-05T02:18:35.182Z,45.81
2022-12-05T02:19:35.154Z,45.86
2022-12-05T02:20:35.162Z,45.81
2022-12-05T02:21:35.134Z,45.76
2022-12-05T02:22:35.130Z,45.91
2022-12-05T02:23:35.287Z,45.71
2022-12-05T02:24:35.092Z,45.96
2022-12-05T02:25:35.100Z,45.86
2022-12-05T02:26:35.087Z,46.06
2022-12-05T02:27:35.118Z,45.86
2022-12-05T02:28:35.036Z,46.01
2022-12-05T02:29:35.027Z,45.91
2022-12-05T02:30:35.035Z,46.11
2022-12-05T02:31:35.193Z,46.01
2022-12-05T02:32:35.003Z,46.01
2022-12-05T02:33:34.989Z,46.01
2022-12-05T02:34:35.001Z,45.86
2022-12-05T02:35:34.968Z,46.16
2022-12-05T02:36:34.955Z,46.16
2022-12-05T02:37:34.928Z,45.76
2022-12-05T02:38:34.922Z,45.96
2022-12-05T02:39:34.941Z,46.37
2022-12-05T02:40:34.888Z,46.16
2022-12-05T02:41:34.887Z,46.06
2022-12-05T02:42:34.852Z,46.01
2022-12-05T02:43:34.856Z,46.16
2022-12-05T02:44:34.851Z,46.11
2022-12-05T02:45:34.881Z,46.11
2022-12-05T02:46:34.850Z,46.01
2022-12-05T02:47:34.812Z,46.11
2022-12-05T02:48:34.787Z,46.06
2022-12-05T02:49:34.766Z,46.01
2022-12-05T02:50:34.747Z,45.96
2022-12-05T02:51:34.757Z,46.01
2022-12-05T02:52:34.740Z,46.11
2022-12-05T02:53:34.717Z,46.26
2022-12-05T02:54:34.715Z,46.11
2022-12-05T02:55:34.697Z,45.96
2022-12-05T02:56:34.677Z,46.16
2022-12-05T02:57:34.680Z,46.11
2022-12-05T02:58:34.805Z,46.26
2022-12-05T02:59:34.640Z,46.21
2022-12-05T03:00:34.624Z,46.11
2022-12-05T03:01:34.691Z,46.16
2022-12-05T03:02:34.616Z,46.26
2022-12-05T03:03:34.616Z,46.32
2022-12-05T03:04:34.613Z,46.32
2022-12-05T03:05:34.585Z,46.16
2022-12-05T03:06:34.563Z,46.26
2022-12-05T03:07:34.631Z,46.21
2022-12-05T03:08:34.512Z,46.21
2022-12-05T03:09:34.516Z,46.32
2022-12-05T03:10:34.502Z,46.26
2022-12-05T03:11:34.476Z,46.32
2022-12-05T03:12:34.460Z,46.26
2022-12-05T03:13:34.438Z,46.21
2022-12-05T03:14:34.432Z,46.32
2022-12-05T03:15:34.423Z,46.21
2022-12-05T03:16:34.496Z,46.52
2022-12-05T03:17:34.429Z,46.37
2022-12-05T03:18:34.441Z,46.89
2022-12-05T03:19:34.461Z,46.32
2022-12-05T03:20:34.378Z,46.47
2022-12-05T03:21:34.356Z,46.63
2022-12-05T03:22:34.343Z,46.47
2022-12-05T03:23:34.339Z,46.52
2022-12-05T03:24:34.288Z,46.47
2022-12-05T03:25:34.312Z,46.63
2022-12-05T03:26:34.301Z,46.57
2022-12-05T03:27:34.269Z,46.63
2022-12-05T03:28:34.278Z,46.63
2022-12-05T03:29:34.249Z,46.52
2022-12-05T03:30:34.258Z,46.83
2022-12-05T03:31:34.208Z,46.73
2022-12-05T03:32:34.229Z,46.89
2022-12-05T03:33:34.191Z,46.73
2022-12-05T03:34:34.161Z,46.78
2022-12-05T03:35:34.386Z,46.78
2022-12-05T03:36:34.230Z,46.63
2022-12-05T03:37:34.193Z,46.94
2022-12-05T03:38:34.125Z,46.68
2022-12-05T03:39:34.138Z,46.94
2022-12-05T03:40:34.128Z,47.04
2022-12-05T03:41:34.080Z,46.99
2022-12-05T03:42:34.084Z,46.94
2022-12-05T03:43:34.069Z,47.10
2022-12-05T03:44:34.059Z,47.07
2022-12-05T03:45:34.203Z,46.89
2022-12-05T03:46:34.082Z,46.73
2022-12-05T03:47:34.001Z,46.68
2022-12-05T03:48:33.988Z,46.78
2022-12-05T03:49:34.467Z,46.99
2022-12-05T03:50:34.046Z,46.83
2022-12-05T03:51:33.962Z,46.99
2022-12-05T03:52:51.030Z,46.94
2022-12-05T03:53:33.978Z,46.73
2022-12-05T03:54:33.988Z,46.89
2022-12-05T03:55:34.110Z,46.89
2022-12-05T03:56:33.891Z,46.73
2022-12-05T03:57:33.856Z,46.73
2022-12-05T03:58:33.920Z,46.73
2022-12-05T03:59:33.832Z,46.57
2022-12-05T04:00:33.807Z,46.73
2022-12-05T04:01:33.964Z,46.83
2022-12-05T04:02:33.817Z,47.15
2022-12-05T04:03:33.854Z,46.83
2022-12-05T04:04:33.759Z,46.89
2022-12-05T04:05:33.811Z,46.78
2022-12-05T04:06:33.771Z,46.63
2022-12-05T04:07:33.806Z,46.99
2022-12-05T04:08:33.759Z,46.73
2022-12-05T04:09:33.721Z,46.83
2022-12-05T04:10:33.711Z,46.68
2022-12-05T04:11:33.686Z,46.57
2022-12-05T04:12:33.709Z,46.68
2022-12-05T04:13:33.734Z,46.89
2022-12-05T04:14:33.671Z,46.68
2022-12-05T04:15:33.690Z,46.89
2022-12-05T04:16:33.678Z,46.99
2022-12-05T04:17:33.619Z,46.68
2022-12-05T04:18:33.616Z,47.15
2022-12-05T04:19:33.575Z,46.99
2022-12-05T04:20:33.579Z,46.89
2022-12-05T04:21:33.564Z,46.94
2022-12-05T04:22:33.609Z,46.57
2022-12-05T04:23:33.535Z,46.99
2022-12-05T04:24:33.564Z,46.78
2022-12-05T04:25:33.516Z,46.73
2022-12-05T04:26:33.484Z,46.83
2022-12-05T04:27:33.489Z,46.78
2022-12-05T04:28:33.466Z,46.57
2022-12-05T04:29:33.459Z,46.63
2022-12-05T04:30:33.476Z,46.78
2022-12-05T04:31:33.534Z,46.68
2022-12-05T04:32:33.513Z,46.57
2022-12-05T04:33:33.488Z,46.63
2022-12-05T04:34:33.423Z,46.63
2022-12-05T04:35:33.454Z,46.63
2022-12-05T04:36:33.368Z,46.68
2022-12-05T04:37:33.351Z,46.68
2022-12-05T04:38:33.349Z,46.73
2022-12-05T04:39:33.327Z,46.73
2022-12-05T04:40:33.303Z,46.68
2022-12-05T04:41:33.332Z,46.68
2022-12-05T04:42:33.308Z,46.26
2022-12-05T04:43:33.293Z,46.47
2022-12-05T04:44:33.390Z,46.57
2022-12-05T04:45:33.237Z,46.26
2022-12-05T04:46:33.294Z,46.42
2022-12-05T04:47:33.237Z,46.42
2022-12-05T04:48:33.198Z,46.32
2022-12-05T04:49:33.196Z,46.47
2022-12-05T04:50:33.207Z,46.42
2022-12-05T04:51:33.225Z,46.47
2022-12-05T04:52:33.149Z,46.37
2022-12-05T04:53:33.147Z,46.32
2022-12-05T04:54:33.098Z,46.32
2022-12-05T04:55:33.194Z,46.32
2022-12-05T04:56:33.118Z,46.68
2022-12-05T04:57:33.104Z,46.21
2022-12-05T04:58:33.087Z,46.26
2022-12-05T04:59:33.052Z,46.21
2022-12-05T05:00:33.074Z,46.21
2022-12-05T05:01:33.096Z,46.26
2022-12-05T05:02:33.165Z,46.16
2022-12-05T05:03:33.012Z,46.16
2022-12-05T05:04:32.985Z,46.16
2022-12-05T05:05:32.968Z,46.21
2022-12-05T05:06:32.963Z,46.01
2022-12-05T05:07:33.059Z,46.06
2022-12-05T05:08:32.953Z,46.11
2022-12-05T05:09:32.950Z,45.91
2022-12-05T05:10:32.896Z,46.06
2022-12-05T05:11:32.901Z,46.06
2022-12-05T05:12:32.870Z,46.01
2022-12-05T05:13:32.875Z,46.47
2022-12-05T05:14:32.855Z,46.37
2022-12-05T05:15:32.856Z,46.21
2022-12-05T05:16:32.940Z,46.21
2022-12-05T05:17:32.831Z,46.01
2022-12-05T05:18:32.806Z,46.11
2022-12-05T05:19:32.794Z,45.86
2022-12-05T05:20:32.783Z,46.01
2022-12-05T05:21:32.773Z,46.01
2022-12-05T05:22:32.763Z,45.91
2022-12-05T05:23:32.770Z,45.86
2022-12-05T05:24:32.765Z,45.96
2022-12-05T05:25:32.707Z,46.01
2022-12-05T05:26:32.719Z,46.06
2022-12-05T05:27:32.709Z,46.11
2022-12-05T05:28:32.692Z,45.91
2022-12-05T05:29:32.661Z,45.71
2022-12-05T05:30:32.675Z,45.91
2022-12-05T05:31:32.829Z,45.76
2022-12-05T05:32:32.664Z,45.86
2022-12-05T05:33:32.625Z,46.01
2022-12-05T05:34:32.589Z,45.81
2022-12-05T05:35:32.573Z,45.71
2022-12-05T05:36:32.586Z,46.01
2022-12-05T05:37:32.556Z,45.86
2022-12-05T05:38:39.582Z,45.86
2022-12-05T05:39:32.517Z,45.96
2022-12-05T05:40:32.505Z,45.81
2022-12-05T05:41:32.497Z,46.01
2022-12-05T05:42:32.510Z,45.86
2022-12-05T05:43:32.485Z,45.71
2022-12-05T05:44:32.486Z,45.76
2022-12-05T05:45:32.441Z,45.76
2022-12-05T05:46:32.477Z,45.66
2022-12-05T05:47:32.439Z,45.81
2022-12-05T05:48:32.405Z,45.86
2022-12-05T05:49:32.404Z,45.76
2022-12-05T05:50:32.382Z,45.61
2022-12-05T05:51:32.389Z,45.76
2022-12-05T05:52:32.341Z,45.66
2022-12-05T05:53:32.363Z,45.71
2022-12-05T05:54:32.322Z,45.71
2022-12-05T05:55:32.335Z,45.71
2022-12-05T05:56:32.286Z,45.81
2022-12-05T05:57:32.290Z,45.76
2022-12-05T05:58:32.292Z,45.71
2022-12-05T05:59:32.287Z,45.76
2022-12-05T06:00:32.265Z,45.81
2022-12-05T06:01:32.229Z,45.66
2022-12-05T06:02:32.272Z,45.61
2022-12-05T06:03:32.385Z,45.76
2022-12-05T06:04:32.204Z,45.81
2022-12-05T06:05:32.178Z,45.96
2022-12-05T06:06:32.173Z,45.61
2022-12-05T06:07:32.207Z,45.81
2022-12-05T06:08:32.147Z,45.91
2022-12-05T06:09:32.135Z,45.86
2022-12-05T06:10:32.123Z,45.66
2022-12-05T06:11:32.128Z,45.91
2022-12-05T06:12:32.076Z,45.71
2022-12-05T06:13:32.071Z,45.86
2022-12-05T06:14:32.058Z,45.71
2022-12-05T06:15:32.073Z,45.91
2022-12-05T06:16:32.129Z,45.81
2022-12-05T06:17:32.020Z,46.11
2022-12-05T06:18:32.020Z,46.01
2022-12-05T06:19:32.020Z,45.86
2022-12-05T06:20:31.993Z,46.01
2022-12-05T06:21:31.987Z,45.76
2022-12-05T06:22:31.952Z,45.76
2022-12-05T06:23:31.946Z,45.96
2022-12-05T06:24:31.938Z,45.96
2022-12-05T06:25:31.938Z,45.81
2022-12-05T06:26:31.909Z,45.86
2022-12-05T06:27:31.922Z,46.01
2022-12-05T06:28:31.877Z,46.01
2022-12-05T06:29:34.092Z,46.11
2022-12-05T06:30:31.876Z,45.96
2022-12-05T06:31:32.013Z,45.91
2022-12-05T06:32:31.846Z,45.81
2022-12-05T06:33:31.810Z,45.86
2022-12-05T06:34:31.792Z,45.91
2022-12-05T06:35:31.788Z,45.86
2022-12-05T06:36:31.769Z,45.71
2022-12-05T06:37:31.782Z,45.41
2022-12-05T06:38:31.749Z,45.36
2022-12-05T06:39:31.766Z,45.27
2022-12-05T06:40:31.739Z,45.22
2022-12-05T06:41:31.696Z,45.12
2022-12-05T06:42:31.692Z,45.02
2022-12-05T06:43:31.700Z,44.97
2022-12-05T06:44:31.663Z,44.64
2022-12-05T06:45:31.720Z,44.69
2022-12-05T06:46:31.664Z,44.74
2022-12-05T06:47:31.628Z,44.69
2022-12-05T06:48:31.611Z,44.59
2022-12-05T06:49:36.219Z,44.64
2022-12-05T06:50:31.619Z,44.64
2022-12-05T06:51:31.588Z,44.69
2022-12-05T06:52:31.572Z,44.74
2022-12-05T06:53:31.569Z,44.74
2022-12-05T06:54:31.542Z,44.88
2022-12-05T06:55:31.512Z,44.88
2022-12-05T06:56:31.530Z,45.12
2022-12-05T06:57:31.493Z,44.88
2022-12-05T06:58:31.532Z,44.97
2022-12-05T06:59:31.512Z,45.07
2022-12-05T07:00:31.489Z,45.17
2022-12-05T07:01:31.509Z,44.97
2022-12-05T07:02:31.514Z,45.07
2022-12-05T07:03:31.429Z,45.07
2022-12-05T07:04:31.433Z,45.36
2022-12-05T07:05:31.428Z,44.93
2022-12-05T07:06:31.405Z,45.36
2022-12-05T07:07:31.430Z,45.12
2022-12-05T07:08:31.389Z,45.36
2022-12-05T07:09:31.350Z,45.31
2022-12-05T07:10:31.348Z,45.02
2022-12-05T07:11:31.348Z,45.27
2022-12-05T07:12:31.318Z,45.41
2022-12-05T07:13:31.281Z,45.36
2022-12-05T07:14:47.076Z,45.51
2022-12-05T07:15:31.294Z,45.27
2022-12-05T07:16:31.272Z,45.12
2022-12-05T07:17:31.250Z,45.36
2022-12-05T07:18:31.219Z,45.51
2022-12-05T07:19:31.244Z,45.31
2022-12-05T07:21:03.571Z,45.46
2022-12-05T07:21:31.189Z,45.27
2022-12-05T07:22:31.210Z,45.27
2022-12-05T07:23:31.181Z,45.12
2022-12-05T07:24:31.146Z,45.36
2022-12-05T07:25:31.154Z,45.36
2022-12-05T07:26:31.150Z,45.36
2022-12-05T07:27:31.099Z,45.12
2022-12-05T07:28:31.131Z,45.17
2022-12-05T07:29:31.124Z,45.12
2022-12-05T07:30:31.112Z,45.22
2022-12-05T07:31:31.138Z,45.31
2022-12-05T07:32:31.058Z,45.12
2022-12-05T07:33:31.059Z,45.51
2022-12-05T07:34:31.048Z,45.17
2022-12-05T07:35:31.018Z,45.36
2022-12-05T07:36:31.029Z,45.46
2022-12-05T07:37:30.975Z,45.12
2022-12-05T07:38:30.971Z,45.31
2022-12-05T07:39:30.949Z,45.56
2022-12-05T07:40:31.002Z,45.66
2022-12-05T07:41:30.919Z,45.27
2022-12-05T07:42:30.925Z,45.41
2022-12-05T07:43:30.942Z,45.56
2022-12-05T07:44:30.909Z,45.27
2022-12-05T07:45:30.978Z,45.56
2022-12-05T07:46:30.875Z,45.41
2022-12-05T07:47:30.907Z,45.31
2022-12-05T07:48:30.850Z,45.46
2022-12-05T07:49:30.824Z,45.36
2022-12-05T07:50:30.830Z,45.36
2022-12-05T07:51:30.799Z,45.31
2022-12-05T07:52:30.813Z,45.36
2022-12-05T07:53:30.791Z,45.76
2022-12-05T07:54:30.805Z,45.22
2022-12-05T07:55:30.752Z,45.66
2022-12-05T07:56:30.746Z,45.46
2022-12-05T07:57:30.706Z,45.66
2022-12-05T07:58:30.715Z,45.56
2022-12-05T07:59:30.696Z,45.66
2022-12-05T08:00:30.676Z,45.46
2022-12-05T08:01:30.729Z,45.51
2022-12-05T08:02:30.703Z,45.46
2022-12-05T08:03:30.649Z,45.46
2022-12-05T08:04:30.653Z,45.76
2022-12-05T08:05:30.628Z,45.46
2022-12-05T08:06:30.645Z,45.66
2022-12-05T08:07:30.622Z,45.66
2022-12-05T08:08:30.595Z,45.66
2022-12-05T08:09:30.572Z,45.51
2022-12-05T08:10:30.545Z,45.66
2022-12-05T08:11:30.531Z,45.46
2022-12-05T08:12:30.526Z,45.56
2022-12-05T08:13:30.499Z,45.91
2022-12-05T08:14:30.530Z,45.76
2022-12-05T08:15:30.499Z,45.61
2022-12-05T08:16:30.565Z,45.56
2022-12-05T08:17:30.479Z,45.56
2022-12-05T08:18:30.463Z,45.71
2022-12-05T08:19:30.470Z,45.71
2022-12-05T08:20:30.493Z,45.46
2022-12-05T08:21:30.408Z,45.56
2022-12-05T08:22:30.416Z,45.56
2022-12-05T08:23:30.386Z,45.51
2022-12-05T08:24:30.393Z,45.56
2022-12-05T08:25:30.345Z,45.46
2022-12-05T08:26:30.340Z,45.76
2022-12-05T08:27:30.358Z,45.51
2022-12-05T08:28:30.394Z,45.56
2022-12-05T08:29:30.314Z,45.36
2022-12-05T08:30:30.351Z,45.31
2022-12-05T08:31:31.028Z,45.66
2022-12-05T08:32:30.273Z,45.76
2022-12-05T08:33:30.248Z,45.36
2022-12-05T08:34:30.256Z,45.61
2022-12-05T08:35:30.222Z,45.51
2022-12-05T08:36:30.231Z,45.41
2022-12-05T08:37:30.220Z,45.31
2022-12-05T08:38:30.210Z,45.46
2022-12-05T08:39:33.921Z,45.17
2022-12-05T08:40:30.190Z,45.27
2022-12-05T08:41:30.429Z,44.97
2022-12-05T08:42:30.182Z,45.07
2022-12-05T08:43:30.176Z,45.27
2022-12-05T08:44:30.123Z,45.22
2022-12-05T08:45:30.096Z,45.41
2022-12-05T08:46:30.188Z,45.31
2022-12-05T08:47:32.358Z,45.22
2022-12-05T08:48:30.060Z,45.27
2022-12-05T08:49:30.080Z,45.41
2022-12-05T08:50:30.061Z,45.31
2022-12-05T08:51:30.053Z,45.07
2022-12-05T08:52:30.015Z,45.22
2022-12-05T08:53:29.998Z,45.27
2022-12-05T08:54:30.043Z,45.31
2022-12-05T08:55:29.997Z,45.27
2022-12-05T08:56:29.986Z,45.22
2022-12-05T08:57:29.963Z,45.17
2022-12-05T08:58:29.927Z,45.17
2022-12-05T08:59:29.927Z,45.22
2022-12-05T09:00:29.910Z,45.12
2022-12-05T09:01:29.984Z,45.27
2022-12-05T09:02:29.914Z,45.27
2022-12-05T09:03:29.881Z,45.36
2022-12-05T09:04:29.895Z,45.36
2022-12-05T09:05:30.207Z,44.97
2022-12-05T09:06:29.947Z,45.02
2022-12-05T09:07:29.829Z,45.22
2022-12-05T09:08:29.831Z,45.07
2022-12-05T09:09:29.826Z,45.31
2022-12-05T09:10:29.769Z,45.46
2022-12-05T09:11:29.790Z,45.22
2022-12-05T09:12:29.763Z,45.36
2022-12-05T09:13:29.735Z,45.22
2022-12-05T09:14:29.727Z,45.22
2022-12-05T09:15:29.780Z,45.41
2022-12-05T09:16:35.122Z,45.22
2022-12-05T09:17:29.736Z,45.31
2022-12-05T09:18:29.683Z,45.41
2022-12-05T09:19:29.654Z,45.17
2022-12-05T09:20:29.648Z,45.41
2022-12-05T09:21:29.636Z,45.41
2022-12-05T09:22:29.638Z,45.46
2022-12-05T09:23:29.630Z,45.17
2022-12-05T09:24:29.597Z,45.41
2022-12-05T09:25:29.593Z,45.36
2022-12-05T09:26:29.554Z,45.27
2022-12-05T09:27:29.592Z,45.41
2022-12-05T09:28:29.561Z,45.17
2022-12-05T09:29:29.555Z,45.31
2022-12-05T09:30:29.579Z,45.31
2022-12-05T09:31:29.595Z,45.36
2022-12-05T09:32:29.515Z,45.27
2022-12-05T09:33:29.498Z,45.27
2022-12-05T09:34:29.463Z,45.36
2022-12-05T09:35:29.448Z,45.17
2022-12-05T09:36:29.482Z,45.36
2022-12-05T09:37:43.063Z,45.22
2022-12-05T09:38:29.456Z,45.41
2022-12-05T09:39:29.408Z,45.07
2022-12-05T09:40:29.447Z,45.27
2022-12-05T09:41:29.390Z,45.27
2022-12-05T09:42:29.390Z,45.17
2022-12-05T09:43:29.407Z,45.41
2022-12-05T09:44:29.380Z,45.12
2022-12-05T09:45:29.357Z,45.12
2022-12-05T09:46:34.031Z,45.31
2022-12-05T09:47:29.294Z,45.12
2022-12-05T09:48:29.327Z,45.07
2022-12-05T09:49:29.268Z,45.31
2022-12-05T09:50:29.268Z,45.02
2022-12-05T09:51:29.239Z,45.22
2022-12-05T09:52:29.311Z,45.31
2022-12-05T09:53:29.226Z,45.27
2022-12-05T09:54:29.232Z,45.36
2022-12-05T09:55:29.247Z,45.07
2022-12-05T09:56:29.188Z,45.31
2022-12-05T09:57:33.626Z,45.12
2022-12-05T09:58:29.196Z,45.12
2022-12-05T09:59:29.153Z,45.07
2022-12-05T10:00:29.144Z,45.22
2022-12-05T10:01:29.227Z,45.12
2022-12-05T10:02:29.386Z,45.12
2022-12-05T10:03:29.108Z,45.17
2022-12-05T10:04:29.215Z,45.07
2022-12-05T10:05:29.177Z,45.46
2022-12-05T10:06:29.041Z,45.02
2022-12-05T10:07:29.039Z,45.12
2022-12-05T10:08:29.027Z,45.27
2022-12-05T10:09:29.028Z,45.12
2022-12-05T10:10:29.007Z,45.46
2022-12-05T10:11:28.965Z,45.31
2022-12-05T10:12:28.990Z,45.27
2022-12-05T10:13:28.951Z,45.07
2022-12-05T10:14:29.005Z,45.17
2022-12-05T10:15:28.926Z,45.07
2022-12-05T10:16:29.011Z,45.12
2022-12-05T10:17:28.909Z,45.12
2022-12-05T10:18:28.908Z,44.97
2022-12-05T10:19:28.962Z,45.17
2022-12-05T10:20:28.895Z,45.27
2022-12-05T10:21:28.866Z,45.22
2022-12-05T10:22:28.903Z,45.07
2022-12-05T10:23:56.046Z,45.22
2022-12-05T10:24:28.841Z,45.17
2022-12-05T10:25:28.815Z,44.93
2022-12-05T10:26:28.822Z,44.83
2022-12-05T10:27:28.797Z,44.83
2022-12-05T10:28:28.787Z,45.17
2022-12-05T10:29:28.752Z,44.83
2022-12-05T10:30:28.751Z,45.02
2022-12-05T10:31:28.784Z,45.02
2022-12-05T10:32:28.736Z,44.74
2022-12-05T10:33:28.721Z,44.83
2022-12-05T10:34:28.699Z,44.97
2022-12-05T10:35:28.676Z,45.12
2022-12-05T10:36:28.660Z,44.97
2022-12-05T10:37:28.655Z,45.02
2022-12-05T10:38:28.681Z,44.78
2022-12-05T10:39:28.615Z,44.83
2022-12-05T10:40:28.645Z,44.78
2022-12-05T10:41:28.594Z,44.88
2022-12-05T10:42:28.594Z,44.88
2022-12-05T10:43:28.613Z,45.02
2022-12-05T10:44:28.577Z,44.83
2022-12-05T10:45:28.562Z,44.83
2022-12-05T10:46:28.633Z,44.54
2022-12-05T10:47:28.524Z,44.74
2022-12-05T10:48:28.593Z,44.59
2022-12-05T10:49:28.491Z,44.59
2022-12-05T10:50:28.472Z,44.74
2022-12-05T10:51:32.533Z,44.54
2022-12-05T10:52:28.489Z,44.64
2022-12-05T10:53:28.447Z,44.64
2022-12-05T10:54:28.423Z,44.74
2022-12-05T10:55:28.453Z,44.36
2022-12-05T10:56:30.820Z,44.54
2022-12-05T10:57:28.422Z,44.54
2022-12-05T10:58:28.390Z,44.45
2022-12-05T10:59:28.368Z,44.40
2022-12-05T11:00:28.360Z,44.36
2022-12-05T11:01:28.371Z,44.69
2022-12-05T11:02:28.433Z,44.54
2022-12-05T11:03:28.351Z,44.54
2022-12-05T11:04:28.285Z,44.54
2022-12-05T11:05:28.359Z,44.50
2022-12-05T11:06:28.302Z,44.59
2022-12-05T11:07:28.274Z,44.40
2022-12-05T11:08:55.921Z,44.26
2022-12-05T11:09:28.248Z,44.54
2022-12-05T11:10:28.199Z,44.50
2022-12-05T11:11:28.271Z,44.50
2022-12-05T11:12:28.233Z,44.64
2022-12-05T11:13:28.182Z,44.40
2022-12-05T11:14:28.206Z,44.45
2022-12-05T11:15:28.167Z,44.54
2022-12-05T11:16:28.192Z,44.45
2022-12-05T11:17:28.141Z,44.45
2022-12-05T11:18:28.162Z,44.45
2022-12-05T11:19:28.134Z,44.31
2022-12-05T11:20:28.106Z,44.17
2022-12-05T11:21:28.067Z,44.40
2022-12-05T11:22:28.063Z,43.98
2022-12-05T11:23:28.055Z,44.22
2022-12-05T11:24:28.043Z,44.17
2022-12-05T11:25:28.069Z,44.17
2022-12-05T11:26:27.998Z,44.31
2022-12-05T11:27:27.986Z,44.26
2022-12-05T11:28:27.985Z,44.22
2022-12-05T11:29:27.978Z,44.31
2022-12-05T11:30:27.985Z,44.17
2022-12-05T11:31:28.174Z,44.22
2022-12-05T11:32:27.934Z,44.22
2022-12-05T11:33:27.924Z,44.17
2022-12-05T11:34:27.906Z,44.31
2022-12-05T11:35:27.909Z,44.22
2022-12-05T11:36:27.898Z,44.17
2022-12-05T11:37:27.862Z,44.12
2022-12-05T11:38:27.838Z,44.36
2022-12-05T11:39:27.855Z,44.03
2022-12-05T11:40:38.439Z,44.22
2022-12-05T11:41:27.936Z,43.98
2022-12-05T11:42:27.854Z,44.08
2022-12-05T11:43:27.846Z,43.94
2022-12-05T11:44:27.791Z,44.12
2022-12-05T11:45:27.753Z,44.03
2022-12-05T11:46:27.807Z,44.17
2022-12-05T11:47:27.777Z,44.17
2022-12-05T11:48:27.724Z,44.08
2022-12-05T11:49:27.738Z,43.89
2022-12-05T11:50:27.700Z,44.03
2022-12-05T11:51:27.723Z,43.89
2022-12-05T11:52:27.699Z,43.98
2022-12-05T11:53:27.683Z,44.17
2022-12-05T11:55:02.866Z,43.85
2022-12-05T11:55:27.663Z,43.98
2022-12-05T11:56:28.477Z,43.94
2022-12-05T11:57:27.669Z,43.80
2022-12-05T11:58:27.593Z,43.89
2022-12-05T11:59:27.572Z,44.12
2022-12-05T12:00:27.570Z,43.89
2022-12-05T12:01:27.552Z,43.89
2022-12-05T12:02:27.633Z,43.94
2022-12-05T12:03:32.765Z,43.98
2022-12-05T12:04:27.534Z,43.94
2022-12-05T12:05:27.503Z,43.94
2022-12-05T12:06:27.496Z,43.89
2022-12-05T12:07:27.489Z,43.89
2022-12-05T12:08:27.452Z,43.94
2022-12-05T12:09:27.467Z,43.75
2022-12-05T12:10:27.445Z,43.75
2022-12-05T12:11:27.447Z,43.71
2022-12-05T12:12:27.429Z,43.85
2022-12-05T12:13:27.401Z,43.62
2022-12-05T12:14:27.401Z,43.62
2022-12-05T12:15:27.367Z,43.71
2022-12-05T12:16:27.387Z,43.80
2022-12-05T12:17:27.357Z,43.75
2022-12-05T12:18:27.344Z,43.89
2022-12-05T12:19:27.362Z,43.94
2022-12-05T12:20:27.308Z,43.94
2022-12-05T12:21:27.318Z,43.75
2022-12-05T12:22:27.288Z,43.66
2022-12-05T12:23:27.259Z,43.75
2022-12-05T12:24:27.287Z,43.75
2022-12-05T12:25:27.247Z,43.94
2022-12-05T12:26:27.248Z,43.80
2022-12-05T12:27:27.235Z,43.80
2022-12-05T12:28:27.216Z,43.89
2022-12-05T12:29:27.216Z,43.80
2022-12-05T12:30:27.187Z,43.98
2022-12-05T12:31:27.256Z,43.85
2022-12-05T12:32:27.140Z,43.75
2022-12-05T12:33:27.738Z,43.98
2022-12-05T12:34:27.121Z,43.80
2022-12-05T12:35:27.126Z,43.71
2022-12-05T12:36:27.114Z,43.71
2022-12-05T12:37:27.095Z,43.85
2022-12-05T12:38:27.082Z,43.75
2022-12-05T12:39:27.066Z,43.53
2022-12-05T12:40:27.047Z,43.44
2022-12-05T12:41:27.045Z,43.53
2022-12-05T12:42:27.028Z,43.39
2022-12-05T12:43:52.782Z,43.39
2022-12-05T12:44:27.073Z,43.39
2022-12-05T12:45:27.016Z,43.44
2022-12-05T12:46:27.075Z,43.39
2022-12-05T12:47:26.983Z,43.30
2022-12-05T12:48:26.939Z,43.35
2022-12-05T12:49:26.946Z,43.44
2022-12-05T12:50:26.958Z,43.53
2022-12-05T12:51:26.922Z,43.48
2022-12-05T12:52:26.892Z,43.53